sensor_id;sensor_type;location;lat;lon;timestamp;pressure;altitude;pressure_sealevel;temperature;humidity
15489;BME280;7846;48.830;9.116;2023-04-29T00:00:30;97514.75;;;16.59;80.75
15489;BME280;7846;48.830;9.116;2023-04-29T00:03:14;97507.00;;;16.58;81.68
15489;BME280;7846;48.830;9.116;2023-04-29T00:05:59;97504.94;;;16.66;81.22
15489;BME280;7846;48.830;9.116;2023-04-29T00:08:43;97504.94;;;16.66;81.22
15489;BME280;7846;48.830;9.116;2023-04-29T00:11:27;97510.47;;;16.58;80.84
15489;BME280;7846;48.830;9.116;2023-04-29T00:14:13;97510.69;;;16.70;80.47
15489;BME280;7846;48.830;9.116;2023-04-29T00:16:57;97513.53;;;16.55;81.39
15489;BME280;7846;48.830;9.116;2023-04-29T00:19:41;97517.22;;;16.67;80.97
15489;BME280;7846;48.830;9.116;2023-04-29T00:22:25;97512.53;;;16.69;80.40
15489;BME280;7846;48.830;9.116;2023-04-29T00:25:10;97506.38;;;16.62;80.62
15489;BME280;7846;48.830;9.116;2023-04-29T00:27:54;97507.84;;;16.78;80.22
15489;BME280;7846;48.830;9.116;2023-04-29T00:30:38;97506.16;;;16.70;80.01
15489;BME280;7846;48.830;9.116;2023-04-29T00:33:22;97507.81;;;16.65;80.69
15489;BME280;7846;48.830;9.116;2023-04-29T00:36:07;97506.38;;;16.69;80.09
15489;BME280;7846;48.830;9.116;2023-04-29T00:38:52;97513.16;;;16.85;79.64
15489;BME280;7846;48.830;9.116;2023-04-29T00:41:36;97518.06;;;16.75;80.21
15489;BME280;7846;48.830;9.116;2023-04-29T00:44:20;97512.28;;;16.51;80.50
15489;BME280;7846;48.830;9.116;2023-04-29T00:47:05;97510.66;;;16.43;80.62
15489;BME280;7846;48.830;9.116;2023-04-29T00:49:54;97513.31;;;16.57;79.94
15489;BME280;7846;48.830;9.116;2023-04-29T00:52:38;97511.91;;;16.54;80.35
15489;BME280;7846;48.830;9.116;2023-04-29T00:55:23;97514.53;;;16.41;80.85
15489;BME280;7846;48.830;9.116;2023-04-29T00:58:09;97520.25;;;16.44;80.65
15489;BME280;7846;48.830;9.116;2023-04-29T01:00:54;97520.44;;;16.36;80.81
15489;BME280;7846;48.830;9.116;2023-04-29T01:03:39;97524.09;;;16.29;80.58
15489;BME280;7846;48.830;9.116;2023-04-29T01:13:02;97521.28;;;16.50;81.16
15489;BME280;7846;48.830;9.116;2023-04-29T01:16:01;97515.75;;;16.32;81.32
15489;BME280;7846;48.830;9.116;2023-04-29T01:18:53;97521.03;;;16.38;81.29
15489;BME280;7846;48.830;9.116;2023-04-29T01:21:47;97528.19;;;16.31;81.42
15489;BME280;7846;48.830;9.116;2023-04-29T01:24:31;97522.81;;;16.05;81.83
15489;BME280;7846;48.830;9.116;2023-04-29T01:27:27;97529.03;;;16.45;81.01
15489;BME280;7846;48.830;9.116;2023-04-29T01:30:43;97521.06;;;16.45;81.01
15489;BME280;7846;48.830;9.116;2023-04-29T01:33:58;97522.50;;;16.41;80.79
15489;BME280;7846;48.830;9.116;2023-04-29T01:36:56;97533.06;;;16.28;81.22
15489;BME280;7846;48.830;9.116;2023-04-29T01:39:56;97536.31;;;16.16;82.08
15489;BME280;7846;48.830;9.116;2023-04-29T01:42:54;97527.13;;;16.19;81.66
15489;BME280;7846;48.830;9.116;2023-04-29T01:45:39;97524.47;;;16.12;80.40
15489;BME280;7846;48.830;9.116;2023-04-29T01:48:27;97529.75;;;16.12;80.82
15489;BME280;7846;48.830;9.116;2023-04-29T01:51:12;97515.66;;;16.05;81.18
15489;BME280;7846;48.830;9.116;2023-04-29T01:53:56;97528.53;;;16.08;80.61
15489;BME280;7846;48.830;9.116;2023-04-29T01:56:40;97528.47;;;15.88;81.09
15489;BME280;7846;48.830;9.116;2023-04-29T01:59:24;97529.53;;;16.01;81.11
15489;BME280;7846;48.830;9.116;2023-04-29T02:02:08;97522.59;;;16.00;81.00
15489;BME280;7846;48.830;9.116;2023-04-29T02:04:53;97528.09;;;15.98;80.71
15489;BME280;7846;48.830;9.116;2023-04-29T02:07:37;97524.00;;;15.95;81.24
15489;BME280;7846;48.830;9.116;2023-04-29T02:10:22;97522.38;;;15.94;81.18
15489;BME280;7846;48.830;9.116;2023-04-29T02:13:06;97519.13;;;15.99;80.50
15489;BME280;7846;48.830;9.116;2023-04-29T02:15:50;97530.03;;;15.69;82.14
15489;BME280;7846;48.830;9.116;2023-04-29T02:18:35;97533.13;;;15.80;82.02
15489;BME280;7846;48.830;9.116;2023-04-29T02:21:22;97526.25;;;15.92;81.43
15489;BME280;7846;48.830;9.116;2023-04-29T02:24:06;97524.75;;;15.83;81.36
15489;BME280;7846;48.830;9.116;2023-04-29T02:26:51;97532.16;;;15.87;81.11
15489;BME280;7846;48.830;9.116;2023-04-29T02:29:34;97530.09;;;15.89;80.35
15489;BME280;7846;48.830;9.116;2023-04-29T02:32:18;97533.78;;;15.88;80.30
15489;BME280;7846;48.830;9.116;2023-04-29T02:35:03;97534.81;;;15.87;80.34
15489;BME280;7846;48.830;9.116;2023-04-29T02:37:47;97525.31;;;15.71;80.99
15489;BME280;7846;48.830;9.116;2023-04-29T02:40:33;97533.41;;;15.63;81.20
15489;BME280;7846;48.830;9.116;2023-04-29T02:43:17;97533.81;;;15.60;80.81
15489;BME280;7846;48.830;9.116;2023-04-29T02:46:01;97537.44;;;15.53;81.24
15489;BME280;7846;48.830;9.116;2023-04-29T02:48:58;97529.88;;;15.84;80.71
15489;BME280;7846;48.830;9.116;2023-04-29T02:51:45;97530.47;;;15.80;80.44
15489;BME280;7846;48.830;9.116;2023-04-29T02:54:29;97527.31;;;15.63;79.83
15489;BME280;7846;48.830;9.116;2023-04-29T02:57:13;97531.53;;;15.57;79.82
15489;BME280;7846;48.830;9.116;2023-04-29T02:59:57;97544.34;;;15.47;80.24
15489;BME280;7846;48.830;9.116;2023-04-29T03:02:41;97542.75;;;15.53;79.58
15489;BME280;7846;48.830;9.116;2023-04-29T03:05:28;97547.97;;;15.67;79.24
15489;BME280;7846;48.830;9.116;2023-04-29T03:08:12;97541.53;;;15.55;79.10
15489;BME280;7846;48.830;9.116;2023-04-29T03:10:56;97543.00;;;15.58;78.66
15489;BME280;7846;48.830;9.116;2023-04-29T03:13:41;97545.00;;;15.56;78.38
15489;BME280;7846;48.830;9.116;2023-04-29T03:16:25;97540.91;;;15.53;78.39
15489;BME280;7846;48.830;9.116;2023-04-29T03:19:09;97549.84;;;15.45;78.99
15489;BME280;7846;48.830;9.116;2023-04-29T03:21:53;97551.56;;;15.60;78.73
15489;BME280;7846;48.830;9.116;2023-04-29T03:24:40;97548.00;;;15.46;78.63
15489;BME280;7846;48.830;9.116;2023-04-29T03:27:25;97547.44;;;15.51;78.25
15489;BME280;7846;48.830;9.116;2023-04-29T03:30:09;97542.59;;;15.61;77.76
15489;BME280;7846;48.830;9.116;2023-04-29T03:32:54;97541.06;;;15.45;78.80
15489;BME280;7846;48.830;9.116;2023-04-29T03:35:38;97537.25;;;15.54;78.25
15489;BME280;7846;48.830;9.116;2023-04-29T03:38:24;97534.75;;;15.46;78.16
15489;BME280;7846;48.830;9.116;2023-04-29T03:41:11;97542.13;;;15.51;78.31
15489;BME280;7846;48.830;9.116;2023-04-29T03:43:55;97540.84;;;15.40;78.23
15489;BME280;7846;48.830;9.116;2023-04-29T03:46:43;97534.56;;;15.19;79.66
15489;BME280;7846;48.830;9.116;2023-04-29T03:49:28;97539.56;;;15.29;79.39
15489;BME280;7846;48.830;9.116;2023-04-29T03:52:12;97534.25;;;15.29;79.21
15489;BME280;7846;48.830;9.116;2023-04-29T03:54:57;97531.38;;;15.31;78.53
15489;BME280;7846;48.830;9.116;2023-04-29T03:57:41;97533.72;;;15.12;79.06
15489;BME280;7846;48.830;9.116;2023-04-29T04:00:25;97534.13;;;15.09;78.71
15489;BME280;7846;48.830;9.116;2023-04-29T04:03:09;97534.44;;;14.99;78.91
15489;BME280;7846;48.830;9.116;2023-04-29T04:05:53;97533.25;;;15.02;78.88
15489;BME280;7846;48.830;9.116;2023-04-29T04:08:38;97540.94;;;14.97;78.92
15489;BME280;7846;48.830;9.116;2023-04-29T04:11:23;97555.41;;;14.94;79.26
15489;BME280;7846;48.830;9.116;2023-04-29T04:14:07;97558.31;;;14.78;79.41
15489;BME280;7846;48.830;9.116;2023-04-29T04:16:51;97551.97;;;14.72;79.40
15489;BME280;7846;48.830;9.116;2023-04-29T04:19:38;97557.38;;;14.64;80.81
15489;BME280;7846;48.830;9.116;2023-04-29T04:22:22;97560.81;;;14.86;80.03
15489;BME280;7846;48.830;9.116;2023-04-29T04:25:07;97569.66;;;14.93;80.16
15489;BME280;7846;48.830;9.116;2023-04-29T04:27:51;97571.50;;;14.93;80.06
15489;BME280;7846;48.830;9.116;2023-04-29T04:30:35;97579.56;;;15.06;80.02
15489;BME280;7846;48.830;9.116;2023-04-29T04:33:19;97574.84;;;15.30;79.22
15489;BME280;7846;48.830;9.116;2023-04-29T04:36:04;97581.25;;;15.42;78.70
15489;BME280;7846;48.830;9.116;2023-04-29T04:38:48;97578.25;;;15.23;79.13
15489;BME280;7846;48.830;9.116;2023-04-29T04:41:33;97578.25;;;15.23;79.59
15489;BME280;7846;48.830;9.116;2023-04-29T04:44:17;97583.88;;;15.35;79.73
15489;BME280;7846;48.830;9.116;2023-04-29T04:47:01;97589.53;;;15.60;78.19
15489;BME280;7846;48.830;9.116;2023-04-29T04:49:45;97592.28;;;15.45;78.96
15489;BME280;7846;48.830;9.116;2023-04-29T04:52:29;97596.06;;;15.58;77.53
15489;BME280;7846;48.830;9.116;2023-04-29T04:55:13;97607.34;;;15.66;77.56
15489;BME280;7846;48.830;9.116;2023-04-29T04:57:58;97597.84;;;15.51;77.86
15489;BME280;7846;48.830;9.116;2023-04-29T05:00:45;97608.91;;;15.89;77.74
15489;BME280;7846;48.830;9.116;2023-04-29T05:03:29;97610.13;;;15.30;79.39
15489;BME280;7846;48.830;9.116;2023-04-29T05:06:13;97624.44;;;15.64;78.85
15489;BME280;7846;48.830;9.116;2023-04-29T05:08:58;97615.41;;;15.80;77.81
15489;BME280;7846;48.830;9.116;2023-04-29T05:11:42;97621.97;;;15.84;76.91
15489;BME280;7846;48.830;9.116;2023-04-29T05:14:26;97628.91;;;15.85;77.02
15489;BME280;7846;48.830;9.116;2023-04-29T05:17:10;97635.66;;;15.87;77.76
15489;BME280;7846;48.830;9.116;2023-04-29T05:19:54;97639.94;;;15.88;77.41
15489;BME280;7846;48.830;9.116;2023-04-29T05:22:38;97643.72;;;16.07;77.84
15489;BME280;7846;48.830;9.116;2023-04-29T05:25:23;97643.78;;;16.14;77.39
15489;BME280;7846;48.830;9.116;2023-04-29T05:28:07;97656.38;;;16.05;77.93
15489;BME280;7846;48.830;9.116;2023-04-29T05:30:52;97659.03;;;16.05;77.84
15489;BME280;7846;48.830;9.116;2023-04-29T05:33:35;97659.03;;;16.05;78.74
15489;BME280;7846;48.830;9.116;2023-04-29T05:36:19;97653.09;;;16.44;77.06
15489;BME280;7846;48.830;9.116;2023-04-29T05:39:03;97667.56;;;16.35;77.25
15489;BME280;7846;48.830;9.116;2023-04-29T05:41:47;97665.66;;;16.23;77.82
15489;BME280;7846;48.830;9.116;2023-04-29T05:44:31;97666.34;;;16.38;77.88
15489;BME280;7846;48.830;9.116;2023-04-29T05:47:15;97664.59;;;16.58;77.52
15489;BME280;7846;48.830;9.116;2023-04-29T05:50:04;97670.09;;;17.25;76.31
15489;BME280;7846;48.830;9.116;2023-04-29T05:52:48;97675.34;;;16.85;77.15
15489;BME280;7846;48.830;9.116;2023-04-29T05:55:32;97680.50;;;17.06;76.19
15489;BME280;7846;48.830;9.116;2023-04-29T05:58:17;97675.78;;;16.95;76.16
15489;BME280;7846;48.830;9.116;2023-04-29T06:01:01;97688.81;;;16.77;76.28
15489;BME280;7846;48.830;9.116;2023-04-29T06:03:47;97694.97;;;16.84;77.18
15489;BME280;7846;48.830;9.116;2023-04-29T06:06:31;97699.88;;;16.87;76.44
15489;BME280;7846;48.830;9.116;2023-04-29T06:09:17;97700.13;;;17.05;75.74
15489;BME280;7846;48.830;9.116;2023-04-29T06:12:03;97707.06;;;16.93;75.34
15489;BME280;7846;48.830;9.116;2023-04-29T06:14:47;97706.41;;;16.78;75.87
15489;BME280;7846;48.830;9.116;2023-04-29T06:17:32;97707.28;;;16.50;75.96
15489;BME280;7846;48.830;9.116;2023-04-29T06:20:16;97711.84;;;16.63;76.04
15489;BME280;7846;48.830;9.116;2023-04-29T06:23:00;97727.34;;;16.59;75.88
15489;BME280;7846;48.830;9.116;2023-04-29T06:25:45;97727.69;;;16.43;75.85
15489;BME280;7846;48.830;9.116;2023-04-29T06:28:29;97724.50;;;16.67;75.15
15489;BME280;7846;48.830;9.116;2023-04-29T06:31:13;97728.00;;;16.68;75.34
15489;BME280;7846;48.830;9.116;2023-04-29T06:33:57;97733.44;;;16.88;74.29
15489;BME280;7846;48.830;9.116;2023-04-29T06:36:42;97740.16;;;16.84;73.83
15489;BME280;7846;48.830;9.116;2023-04-29T06:39:27;97740.78;;;16.86;72.75
15489;BME280;7846;48.830;9.116;2023-04-29T06:42:11;97740.63;;;16.59;72.76
15489;BME280;7846;48.830;9.116;2023-04-29T06:44:56;97748.56;;;16.94;71.90
15489;BME280;7846;48.830;9.116;2023-04-29T06:47:40;97751.59;;;16.78;70.74
15489;BME280;7846;48.830;9.116;2023-04-29T06:50:24;97758.28;;;17.22;69.60
15489;BME280;7846;48.830;9.116;2023-04-29T06:53:08;97759.09;;;17.22;68.86
15489;BME280;7846;48.830;9.116;2023-04-29T06:55:52;97766.25;;;17.22;69.19
15489;BME280;7846;48.830;9.116;2023-04-29T06:58:36;97767.56;;;17.59;68.48
15489;BME280;7846;48.830;9.116;2023-04-29T07:01:21;97754.28;;;17.92;68.36
15489;BME280;7846;48.830;9.116;2023-04-29T07:04:05;97766.97;;;17.90;67.18
15489;BME280;7846;48.830;9.116;2023-04-29T07:06:49;97761.03;;;18.01;66.85
15489;BME280;7846;48.830;9.116;2023-04-29T07:09:33;97764.69;;;17.60;68.81
15489;BME280;7846;48.830;9.116;2023-04-29T07:12:19;97769.44;;;17.98;66.82
15489;BME280;7846;48.830;9.116;2023-04-29T07:15:03;97785.31;;;17.25;67.24
15489;BME280;7846;48.830;9.116;2023-04-29T07:17:46;97775.53;;;17.59;65.74
15489;BME280;7846;48.830;9.116;2023-04-29T07:20:31;97789.72;;;18.06;64.96
15489;BME280;7846;48.830;9.116;2023-04-29T07:23:15;97782.13;;;17.83;64.26
15489;BME280;7846;48.830;9.116;2023-04-29T07:26:08;97788.06;;;18.25;64.46
15489;BME280;7846;48.830;9.116;2023-04-29T07:28:52;97788.25;;;18.17;64.21
15489;BME280;7846;48.830;9.116;2023-04-29T07:31:37;97793.19;;;17.86;63.83
15489;BME280;7846;48.830;9.116;2023-04-29T07:34:21;97785.38;;;17.65;64.91
15489;BME280;7846;48.830;9.116;2023-04-29T07:37:06;97794.34;;;17.57;64.69
15489;BME280;7846;48.830;9.116;2023-04-29T07:39:51;97782.34;;;17.95;64.10
15489;BME280;7846;48.830;9.116;2023-04-29T07:42:35;97791.16;;;17.82;64.69
15489;BME280;7846;48.830;9.116;2023-04-29T07:45:19;97785.97;;;17.60;63.80
15489;BME280;7846;48.830;9.116;2023-04-29T07:48:04;97800.16;;;17.94;64.75
15489;BME280;7846;48.830;9.116;2023-04-29T07:50:50;97788.44;;;18.35;63.61
15489;BME280;7846;48.830;9.116;2023-04-29T07:53:34;97797.28;;;18.35;63.35
15489;BME280;7846;48.830;9.116;2023-04-29T07:56:19;97801.38;;;17.78;64.07
15489;BME280;7846;48.830;9.116;2023-04-29T07:59:06;97803.66;;;18.01;64.54
15489;BME280;7846;48.830;9.116;2023-04-29T08:01:50;97801.34;;;18.45;63.22
15489;BME280;7846;48.830;9.116;2023-04-29T08:04:38;97804.66;;;18.33;63.29
15489;BME280;7846;48.830;9.116;2023-04-29T08:07:24;97810.19;;;18.45;63.37
15489;BME280;7846;48.830;9.116;2023-04-29T08:10:09;97814.69;;;18.45;64.04
15489;BME280;7846;48.830;9.116;2023-04-29T08:12:53;97813.47;;;18.41;64.40
15489;BME280;7846;48.830;9.116;2023-04-29T08:15:37;97820.53;;;17.40;66.53
15489;BME280;7846;48.830;9.116;2023-04-29T08:18:22;97823.22;;;17.47;67.20
15489;BME280;7846;48.830;9.116;2023-04-29T08:21:06;97830.91;;;17.22;66.82
15489;BME280;7846;48.830;9.116;2023-04-29T08:23:50;97823.34;;;17.19;68.54
15489;BME280;7846;48.830;9.116;2023-04-29T08:26:34;97830.88;;;17.77;65.89
15489;BME280;7846;48.830;9.116;2023-04-29T08:29:18;97830.28;;;17.95;65.01
15489;BME280;7846;48.830;9.116;2023-04-29T08:32:02;97838.00;;;17.70;65.19
15489;BME280;7846;48.830;9.116;2023-04-29T08:34:45;97838.41;;;17.05;66.66
15489;BME280;7846;48.830;9.116;2023-04-29T08:37:29;97842.72;;;16.72;68.06
15489;BME280;7846;48.830;9.116;2023-04-29T08:40:13;97840.28;;;17.11;67.85
15489;BME280;7846;48.830;9.116;2023-04-29T08:42:59;97839.50;;;17.85;66.16
15489;BME280;7846;48.830;9.116;2023-04-29T08:45:44;97832.44;;;17.51;66.01
15489;BME280;7846;48.830;9.116;2023-04-29T08:48:29;97835.03;;;17.25;65.78
15489;BME280;7846;48.830;9.116;2023-04-29T08:51:16;97836.19;;;17.09;67.29
15489;BME280;7846;48.830;9.116;2023-04-29T08:54:00;97836.25;;;17.22;66.32
15489;BME280;7846;48.830;9.116;2023-04-29T08:56:45;97842.16;;;17.24;66.26
15489;BME280;7846;48.830;9.116;2023-04-29T08:59:31;97846.63;;;17.65;65.95
15489;BME280;7846;48.830;9.116;2023-04-29T09:02:15;97845.44;;;18.41;64.48
15489;BME280;7846;48.830;9.116;2023-04-29T09:05:07;97841.53;;;18.50;63.48
15489;BME280;7846;48.830;9.116;2023-04-29T09:07:52;97835.38;;;18.56;62.57
15489;BME280;7846;48.830;9.116;2023-04-29T09:10:36;97847.31;;;18.07;63.89
15489;BME280;7846;48.830;9.116;2023-04-29T09:13:26;97849.56;;;17.29;67.00
15489;BME280;7846;48.830;9.116;2023-04-29T09:16:11;97852.66;;;18.13;63.38
15489;BME280;7846;48.830;9.116;2023-04-29T09:18:55;97846.50;;;18.33;62.97
15489;BME280;7846;48.830;9.116;2023-04-29T09:21:53;97852.78;;;18.92;60.00
15489;BME280;7846;48.830;9.116;2023-04-29T09:24:37;97846.22;;;18.68;60.67
15489;BME280;7846;48.830;9.116;2023-04-29T09:27:27;97850.25;;;19.10;61.43
15489;BME280;7846;48.830;9.116;2023-04-29T09:30:12;97853.31;;;19.14;61.96
15489;BME280;7846;48.830;9.116;2023-04-29T09:33:06;97852.34;;;19.46;59.61
15489;BME280;7846;48.830;9.116;2023-04-29T09:35:50;97851.47;;;19.59;57.92
15489;BME280;7846;48.830;9.116;2023-04-29T09:38:35;97855.59;;;19.55;58.60
15489;BME280;7846;48.830;9.116;2023-04-29T09:41:19;97866.59;;;18.29;61.71
15489;BME280;7846;48.830;9.116;2023-04-29T09:44:04;97863.69;;;18.30;60.74
15489;BME280;7846;48.830;9.116;2023-04-29T09:46:59;97858.34;;;18.63;60.70
15489;BME280;7846;48.830;9.116;2023-04-29T09:49:45;97862.56;;;19.04;60.21
15489;BME280;7846;48.830;9.116;2023-04-29T09:52:39;97857.47;;;19.03;59.17
15489;BME280;7846;48.830;9.116;2023-04-29T09:55:25;97864.22;;;19.05;60.05
15489;BME280;7846;48.830;9.116;2023-04-29T09:58:29;97862.59;;;18.98;58.91
15489;BME280;7846;48.830;9.116;2023-04-29T10:01:17;97860.78;;;18.85;59.63
15489;BME280;7846;48.830;9.116;2023-04-29T10:04:03;97866.63;;;20.03;56.76
15489;BME280;7846;48.830;9.116;2023-04-29T10:06:51;97871.41;;;20.51;56.14
15489;BME280;7846;48.830;9.116;2023-04-29T10:09:36;97868.56;;;20.21;56.61
15489;BME280;7846;48.830;9.116;2023-04-29T10:12:22;97863.25;;;20.40;55.75
15489;BME280;7846;48.830;9.116;2023-04-29T10:15:25;97878.00;;;20.92;55.02
15489;BME280;7846;48.830;9.116;2023-04-29T10:18:20;97867.25;;;20.56;54.53
15489;BME280;7846;48.830;9.116;2023-04-29T10:21:10;97865.94;;;19.83;55.59
15489;BME280;7846;48.830;9.116;2023-04-29T10:23:57;97865.81;;;19.65;55.30
15489;BME280;7846;48.830;9.116;2023-04-29T10:26:42;97860.25;;;19.73;55.29
15489;BME280;7846;48.830;9.116;2023-04-29T10:29:28;97866.91;;;19.50;55.75
15489;BME280;7846;48.830;9.116;2023-04-29T10:32:13;97860.31;;;19.01;57.36
15489;BME280;7846;48.830;9.116;2023-04-29T10:34:58;97858.59;;;19.27;58.04
15489;BME280;7846;48.830;9.116;2023-04-29T10:37:44;97851.47;;;19.66;56.42
15489;BME280;7846;48.830;9.116;2023-04-29T10:40:43;97848.03;;;20.40;55.63
15489;BME280;7846;48.830;9.116;2023-04-29T10:43:31;97847.56;;;19.93;56.60
15489;BME280;7846;48.830;9.116;2023-04-29T10:49:01;97853.66;;;19.75;57.05
15489;BME280;7846;48.830;9.116;2023-04-29T10:51:46;97843.31;;;19.47;55.77
15489;BME280;7846;48.830;9.116;2023-04-29T10:54:30;97843.75;;;19.82;57.01
15489;BME280;7846;48.830;9.116;2023-04-29T10:57:19;97843.56;;;20.59;54.49
15489;BME280;7846;48.830;9.116;2023-04-29T11:00:04;97846.72;;;19.99;54.36
15489;BME280;7846;48.830;9.116;2023-04-29T11:02:48;97830.75;;;19.54;55.40
15489;BME280;7846;48.830;9.116;2023-04-29T11:05:34;97838.50;;;20.51;55.20
15489;BME280;7846;48.830;9.116;2023-04-29T11:08:20;97836.59;;;20.76;54.24
15489;BME280;7846;48.830;9.116;2023-04-29T11:11:08;97835.91;;;20.63;52.42
15489;BME280;7846;48.830;9.116;2023-04-29T11:13:52;97833.34;;;20.93;50.29
15489;BME280;7846;48.830;9.116;2023-04-29T11:16:36;97835.50;;;20.84;52.55
15489;BME280;7846;48.830;9.116;2023-04-29T11:19:32;97830.63;;;20.56;51.19
15489;BME280;7846;48.830;9.116;2023-04-29T11:25:03;97841.22;;;19.63;55.13
15489;BME280;7846;48.830;9.116;2023-04-29T11:27:50;97842.53;;;19.78;54.10
15489;BME280;7846;48.830;9.116;2023-04-29T11:30:38;97834.94;;;20.07;52.77
15489;BME280;7846;48.830;9.116;2023-04-29T11:33:23;97828.66;;;19.95;54.24
15489;BME280;7846;48.830;9.116;2023-04-29T11:36:11;97830.41;;;19.76;57.33
15489;BME280;7846;48.830;9.116;2023-04-29T11:38:55;97844.84;;;18.19;58.78
15489;BME280;7846;48.830;9.116;2023-04-29T11:41:39;97839.03;;;18.68;58.45
15489;BME280;7846;48.830;9.116;2023-04-29T11:44:23;97848.94;;;18.54;58.10
15489;BME280;7846;48.830;9.116;2023-04-29T11:47:07;97858.13;;;18.72;59.07
15489;BME280;7846;48.830;9.116;2023-04-29T11:49:52;97848.75;;;18.03;59.04
15489;BME280;7846;48.830;9.116;2023-04-29T11:52:38;97848.91;;;18.74;58.07
15489;BME280;7846;48.830;9.116;2023-04-29T11:55:23;97843.25;;;19.16;57.03
15489;BME280;7846;48.830;9.116;2023-04-29T11:58:08;97849.13;;;18.46;59.18
15489;BME280;7846;48.830;9.116;2023-04-29T12:00:52;97846.94;;;19.15;58.97
15489;BME280;7846;48.830;9.116;2023-04-29T12:03:36;97864.03;;;18.94;57.77
15489;BME280;7846;48.830;9.116;2023-04-29T12:06:21;97866.56;;;18.42;59.52
15489;BME280;7846;48.830;9.116;2023-04-29T12:09:06;97859.19;;;18.51;59.36
15489;BME280;7846;48.830;9.116;2023-04-29T12:11:51;97859.78;;;18.46;59.46
15489;BME280;7846;48.830;9.116;2023-04-29T12:14:35;97860.06;;;19.16;57.87
15489;BME280;7846;48.830;9.116;2023-04-29T12:17:20;97865.22;;;19.18;57.91
15489;BME280;7846;48.830;9.116;2023-04-29T12:20:05;97854.63;;;18.91;58.58
15489;BME280;7846;48.830;9.116;2023-04-29T12:22:50;97857.75;;;19.33;58.34
15489;BME280;7846;48.830;9.116;2023-04-29T12:25:34;97859.34;;;19.47;57.11
15489;BME280;7846;48.830;9.116;2023-04-29T12:28:19;97860.19;;;19.41;57.88
15489;BME280;7846;48.830;9.116;2023-04-29T12:31:03;97852.31;;;19.08;56.17
15489;BME280;7846;48.830;9.116;2023-04-29T12:33:47;97863.28;;;19.31;57.22
15489;BME280;7846;48.830;9.116;2023-04-29T12:36:32;97871.41;;;19.05;57.46
15489;BME280;7846;48.830;9.116;2023-04-29T12:39:17;97870.03;;;19.86;56.08
15489;BME280;7846;48.830;9.116;2023-04-29T12:42:02;97867.22;;;20.05;55.41
15489;BME280;7846;48.830;9.116;2023-04-29T12:44:47;97871.91;;;21.03;53.26
15489;BME280;7846;48.830;9.116;2023-04-29T12:47:32;97877.38;;;19.90;55.53
15489;BME280;7846;48.830;9.116;2023-04-29T12:50:19;97879.88;;;20.42;53.98
15489;BME280;7846;48.830;9.116;2023-04-29T12:53:04;97878.16;;;19.97;54.30
15489;BME280;7846;48.830;9.116;2023-04-29T12:55:49;97879.69;;;20.18;54.65
15489;BME280;7846;48.830;9.116;2023-04-29T12:58:33;97884.38;;;21.65;51.95
15489;BME280;7846;48.830;9.116;2023-04-29T13:01:17;97889.25;;;21.38;50.72
15489;BME280;7846;48.830;9.116;2023-04-29T13:04:02;97878.91;;;22.67;48.84
15489;BME280;7846;48.830;9.116;2023-04-29T13:06:48;97883.06;;;21.56;51.06
15489;BME280;7846;48.830;9.116;2023-04-29T13:09:31;97883.75;;;21.14;51.29
15489;BME280;7846;48.830;9.116;2023-04-29T13:12:17;97889.03;;;22.18;49.03
15489;BME280;7846;48.830;9.116;2023-04-29T13:15:02;97890.91;;;21.69;50.02
15489;BME280;7846;48.830;9.116;2023-04-29T13:17:46;97884.13;;;21.36;51.16
15489;BME280;7846;48.830;9.116;2023-04-29T13:20:30;97881.16;;;21.44;50.07
15489;BME280;7846;48.830;9.116;2023-04-29T13:23:15;97889.47;;;20.99;51.80
15489;BME280;7846;48.830;9.116;2023-04-29T13:25:59;97895.72;;;20.43;52.73
15489;BME280;7846;48.830;9.116;2023-04-29T13:28:43;97884.47;;;20.85;52.22
15489;BME280;7846;48.830;9.116;2023-04-29T13:31:27;97874.41;;;20.05;53.32
15489;BME280;7846;48.830;9.116;2023-04-29T13:34:12;97886.88;;;21.11;51.84
15489;BME280;7846;48.830;9.116;2023-04-29T13:36:56;97887.16;;;21.88;49.39
15489;BME280;7846;48.830;9.116;2023-04-29T13:39:40;97886.75;;;20.63;52.04
15489;BME280;7846;48.830;9.116;2023-04-29T13:42:24;97882.84;;;21.20;52.01
15489;BME280;7846;48.830;9.116;2023-04-29T13:45:08;97889.59;;;21.90;49.36
15489;BME280;7846;48.830;9.116;2023-04-29T13:47:53;97891.47;;;20.86;51.19
15489;BME280;7846;48.830;9.116;2023-04-29T13:50:37;97890.06;;;21.38;51.22
15489;BME280;7846;48.830;9.116;2023-04-29T13:53:23;97896.59;;;21.91;49.96
15489;BME280;7846;48.830;9.116;2023-04-29T13:56:08;97899.97;;;22.16;48.88
15489;BME280;7846;48.830;9.116;2023-04-29T13:58:53;97896.13;;;20.90;50.77
15489;BME280;7846;48.830;9.116;2023-04-29T14:01:38;97899.59;;;20.72;51.29
15489;BME280;7846;48.830;9.116;2023-04-29T14:04:22;97894.88;;;20.93;51.68
15489;BME280;7846;48.830;9.116;2023-04-29T14:07:06;97904.41;;;21.92;50.39
15489;BME280;7846;48.830;9.116;2023-04-29T14:09:50;97909.56;;;21.45;50.33
15489;BME280;7846;48.830;9.116;2023-04-29T14:12:34;97906.16;;;21.98;48.30
15489;BME280;7846;48.830;9.116;2023-04-29T14:15:19;97918.56;;;20.71;50.80
15489;BME280;7846;48.830;9.116;2023-04-29T14:18:04;97899.75;;;19.06;54.49
15489;BME280;7846;48.830;9.116;2023-04-29T14:20:52;97898.31;;;18.97;55.08
15489;BME280;7846;48.830;9.116;2023-04-29T14:23:37;97891.84;;;19.31;54.51
15489;BME280;7846;48.830;9.116;2023-04-29T14:26:21;97893.81;;;19.94;52.72
15489;BME280;7846;48.830;9.116;2023-04-29T14:29:06;97895.22;;;19.06;53.63
15489;BME280;7846;48.830;9.116;2023-04-29T14:31:50;97901.31;;;19.20;54.73
15489;BME280;7846;48.830;9.116;2023-04-29T14:34:34;97908.25;;;19.28;54.45
15489;BME280;7846;48.830;9.116;2023-04-29T14:37:19;97904.75;;;19.41;54.98
15489;BME280;7846;48.830;9.116;2023-04-29T14:40:04;97916.97;;;19.10;54.93
15489;BME280;7846;48.830;9.116;2023-04-29T14:42:49;97918.44;;;18.99;55.36
15489;BME280;7846;48.830;9.116;2023-04-29T14:45:34;97915.47;;;19.79;53.26
15489;BME280;7846;48.830;9.116;2023-04-29T14:48:17;97920.44;;;19.69;52.71
15489;BME280;7846;48.830;9.116;2023-04-29T14:51:04;97930.13;;;19.70;53.20
15489;BME280;7846;48.830;9.116;2023-04-29T14:53:48;97926.94;;;19.86;52.98
15489;BME280;7846;48.830;9.116;2023-04-29T14:56:32;97930.94;;;18.59;55.61
15489;BME280;7846;48.830;9.116;2023-04-29T14:59:16;97924.34;;;19.08;55.42